Time;durP1;ratioP1;P1;durP2;ratioP2;P2;SDS_P1;SDS_P2;PMS_P1;PMS_P2;Temp;Humidity;BMP_temperature;BMP_pressure;BME280_temperature;BME280_humidity;BME280_pressure;Samples;Min_cycle;Max_cycle;Signal;HPM_P1;HPM_P2
2022/07/07 00:01:59;;;;;;;2.67;0.60;;;17.10;97.30;;;;;;5091705;28;20498;-47
2022/07/07 00:04:25;;;;;;;0.98;0.88;;;17.00;97.20;;;;;;5092351;28;20032;-55
2022/07/07 00:06:51;;;;;;;0.60;0.50;;;17.00;97.30;;;;;;5092334;28;20035;-51
2022/07/07 00:09:16;;;;;;;1.25;0.60;;;16.90;97.30;;;;;;5092344;28;20456;-55
2022/07/07 00:11:42;;;;;;;1.55;0.50;;;16.90;97.30;;;;;;5091990;28;20413;-54
2022/07/07 00:14:09;;;;;;;1.25;0.70;;;16.90;97.50;;;;;;5091831;28;20032;-53
2022/07/07 00:16:35;;;;;;;0.85;0.57;;;16.90;97.70;;;;;;5092335;28;20024;-44
2022/07/07 00:19:02;;;;;;;1.17;0.65;;;16.80;97.60;;;;;;5091946;28;20032;-54
2022/07/07 00:21:28;;;;;;;2.05;0.75;;;16.80;97.80;;;;;;5091727;28;20035;-51
2022/07/07 00:23:54;;;;;;;1.08;0.65;;;16.80;97.80;;;;;;5091948;28;20036;-52
2022/07/07 00:26:20;;;;;;;1.50;0.70;;;16.80;97.90;;;;;;5092052;28;20023;-58
2022/07/07 00:28:48;;;;;;;1.38;0.80;;;16.70;98.00;;;;;;5091911;28;20124;-52
2022/07/07 00:31:13;;;;;;;1.83;0.73;;;16.70;98.10;;;;;;5091649;28;20016;-50
2022/07/07 00:33:39;;;;;;;2.50;0.82;;;16.60;98.10;;;;;;5092086;28;20030;-59
2022/07/07 00:36:07;;;;;;;1.35;0.70;;;16.60;98.10;;;;;;5091891;28;20028;-41
2022/07/07 00:38:33;;;;;;;2.50;1.00;;;16.60;98.10;;;;;;5091745;28;20036;-51
2022/07/07 00:40:58;;;;;;;2.88;1.00;;;16.60;98.00;;;;;;5091349;28;20023;-57
2022/07/07 00:43:24;;;;;;;1.75;1.00;;;16.60;98.30;;;;;;5091451;28;20399;-52
2022/07/07 00:45:51;;;;;;;2.13;1.02;;;16.60;98.30;;;;;;5091660;28;20056;-55
2022/07/07 00:48:20;;;;;;;1.67;1.00;;;16.60;98.40;;;;;;5077478;28;20054;-46
2022/07/07 00:50:47;;;;;;;3.55;1.02;;;16.50;98.20;;;;;;5091458;28;20022;-48
2022/07/07 00:53:15;;;;;;;1.55;1.08;;;16.50;98.30;;;;;;5091426;28;20475;-54
2022/07/07 00:55:41;;;;;;;2.38;1.20;;;16.50;98.30;;;;;;5091423;28;20056;-45
2022/07/07 00:58:07;;;;;;;1.95;0.90;;;16.50;98.40;;;;;;5091456;28;20362;-50
2022/07/07 01:00:33;;;;;;;1.60;0.93;;;16.40;98.30;;;;;;5091134;28;20023;-50
2022/07/07 01:02:59;;;;;;;1.98;0.88;;;16.40;98.40;;;;;;5091193;28;20063;-51
2022/07/07 01:05:25;;;;;;;1.38;0.80;;;16.40;98.60;;;;;;5091264;28;20043;-47
2022/07/07 01:07:52;;;;;;;1.23;0.80;;;16.40;98.70;;;;;;5091345;28;20028;-49
2022/07/07 01:10:18;;;;;;;2.40;0.98;;;16.30;98.60;;;;;;5091135;28;20099;-58
2022/07/07 01:12:44;;;;;;;3.42;1.00;;;16.20;98.70;;;;;;5091236;28;20039;-55
2022/07/07 01:15:11;;;;;;;1.88;1.05;;;16.20;98.90;;;;;;5091574;28;20020;-55
2022/07/07 01:17:38;;;;;;;1.77;0.95;;;16.10;98.90;;;;;;5091156;28;20502;-57
2022/07/07 01:20:06;;;;;;;4.13;0.90;;;16.10;99.00;;;;;;5091051;28;20111;-51
2022/07/07 01:22:34;;;;;;;1.75;0.90;;;16.10;99.00;;;;;;5090686;28;20036;-56
2022/07/07 01:25:01;;;;;;;3.50;0.95;;;16.10;99.20;;;;;;5090573;28;20081;-56
2022/07/07 01:27:26;;;;;;;1.90;0.90;;;16.10;99.00;;;;;;5091159;28;20451;-56
2022/07/07 01:29:54;;;;;;;1.98;1.00;;;16.10;99.10;;;;;;5091222;28;20471;-47
2022/07/07 01:32:22;;;;;;;1.40;0.98;;;16.10;99.20;;;;;;5090638;28;20061;-52
2022/07/07 01:34:49;;;;;;;1.15;0.80;;;16.00;99.10;;;;;;5090978;28;20032;-53
2022/07/07 01:37:15;;;;;;;1.55;0.93;;;16.00;99.40;;;;;;5090954;28;20024;-52
2022/07/07 01:39:42;;;;;;;2.33;0.90;;;16.00;99.60;;;;;;5090978;28;20494;-51
2022/07/07 01:42:09;;;;;;;1.25;0.80;;;16.00;99.60;;;;;;5090646;28;20028;-51
2022/07/07 01:44:38;;;;;;;1.67;0.90;;;16.00;99.40;;;;;;5091051;28;20024;-53
2022/07/07 01:47:06;;;;;;;1.73;0.77;;;16.00;99.50;;;;;;5084251;28;20020;-53
2022/07/07 01:49:33;;;;;;;2.45;1.05;;;15.90;99.80;;;;;;5081634;28;20099;-57
2022/07/07 01:52:00;;;;;;;1.42;0.60;;;16.00;99.90;;;;;;5072002;28;20027;-47
2022/07/07 01:54:29;;;;;;;1.40;0.70;;;16.00;99.90;;;;;;5085878;28;20024;-56
2022/07/07 01:56:55;;;;;;;1.15;0.70;;;16.10;99.80;;;;;;5079200;28;20034;-51
2022/07/07 01:59:21;;;;;;;2.22;0.77;;;16.20;99.90;;;;;;5083244;28;20024;-49
2022/07/07 02:01:46;;;;;;;1.27;0.60;;;16.20;99.90;;;;;;5083501;28;20461;-56
2022/07/07 02:04:12;;;;;;;0.90;0.60;;;16.30;99.70;;;;;;5090774;28;20024;-58
2022/07/07 02:06:38;;;;;;;1.42;0.77;;;16.40;99.90;;;;;;5090411;28;20467;-54
2022/07/07 02:09:05;;;;;;;1.85;0.70;;;16.40;99.90;;;;;;5076459;28;20063;-56
2022/07/07 02:11:30;;;;;;;1.45;0.80;;;16.50;99.80;;;;;;5090730;28;20089;-54
2022/07/07 02:13:56;;;;;;;0.70;0.63;;;16.50;99.20;;;;;;5090628;28;20024;-50
2022/07/07 02:16:24;;;;;;;1.63;0.77;;;16.40;99.00;;;;;;5090729;28;20095;-53
2022/07/07 02:18:54;;;;;;;1.42;0.77;;;16.30;99.00;;;;;;5090539;28;20020;-50
2022/07/07 02:21:20;;;;;;;3.00;0.73;;;16.30;99.30;;;;;;5090218;28;20075;-52
2022/07/07 02:23:47;;;;;;;2.38;0.80;;;16.30;99.60;;;;;;5090666;28;20032;-45
2022/07/07 02:26:13;;;;;;;0.80;0.70;;;16.40;99.90;;;;;;5076233;28;20020;-56
2022/07/07 02:28:40;;;;;;;1.75;0.70;;;16.40;99.80;;;;;;5090623;28;20020;-50
2022/07/07 02:31:06;;;;;;;0.88;0.57;;;16.50;99.90;;;;;;5090066;28;20399;-60
2022/07/07 02:33:32;;;;;;;0.82;0.70;;;16.50;99.60;;;;;;5090487;28;20016;-56
2022/07/07 02:35:58;;;;;;;3.30;0.80;;;16.60;99.80;;;;;;5090829;28;20039;-59
2022/07/07 02:38:25;;;;;;;1.50;0.70;;;16.50;99.90;;;;;;5079092;28;20020;-55
2022/07/07 02:40:51;;;;;;;2.58;0.80;;;16.60;99.60;;;;;;5093975;28;20079;-51
2022/07/07 02:43:17;;;;;;;0.75;0.68;;;16.60;99.20;;;;;;5093737;28;20512;-58
2022/07/07 02:45:44;;;;;;;0.65;0.63;;;16.60;98.90;;;;;;5093978;28;20020;-53
2022/07/07 02:48:11;;;;;;;1.63;0.70;;;16.60;98.70;;;;;;5093908;28;20034;-56
2022/07/07 02:50:37;;;;;;;1.02;0.60;;;16.60;99.40;;;;;;5093648;28;20051;-54
2022/07/07 02:53:04;;;;;;;1.17;0.68;;;16.60;99.50;;;;;;5093648;28;20141;-57
2022/07/07 02:55:30;;;;;;;0.95;0.70;;;16.70;99.40;;;;;;5093883;28;20028;-51
2022/07/07 02:57:57;;;;;;;0.90;0.65;;;16.60;99.80;;;;;;5093968;28;20032;-56
2022/07/07 03:00:23;;;;;;;1.83;0.63;;;16.60;99.50;;;;;;5079252;28;20032;-55
2022/07/07 03:02:48;;;;;;;2.53;0.73;;;16.60;98.80;;;;;;5093130;28;20490;-53
2022/07/07 03:05:14;;;;;;;0.90;0.70;;;16.40;99.10;;;;;;5093430;28;20495;-52
2022/07/07 03:07:40;;;;;;;1.25;0.70;;;16.40;99.10;;;;;;5093737;28;20034;-54
2022/07/07 03:10:06;;;;;;;1.45;0.73;;;16.30;99.20;;;;;;5093519;28;20406;-55
2022/07/07 03:12:33;;;;;;;1.27;0.65;;;16.20;99.40;;;;;;5093268;28;20505;-55
2022/07/07 03:14:58;;;;;;;2.08;0.95;;;16.10;99.40;;;;;;5093418;28;20028;-57
2022/07/07 03:17:24;;;;;;;2.00;0.80;;;16.10;99.50;;;;;;5093351;28;20020;-57
2022/07/07 03:19:50;;;;;;;0.93;0.73;;;16.00;99.70;;;;;;5093333;28;20031;-55
2022/07/07 03:22:15;;;;;;;1.63;0.68;;;16.00;99.70;;;;;;5093171;28;20038;-57
2022/07/07 03:24:41;;;;;;;2.58;0.85;;;15.90;99.80;;;;;;5093123;28;20387;-53
2022/07/07 03:27:07;;;;;;;1.15;0.80;;;15.90;99.90;;;;;;5093289;28;20394;-56
2022/07/07 03:29:32;;;;;;;1.02;0.77;;;15.90;99.90;;;;;;5093233;28;20485;-55
2022/07/07 03:31:58;;;;;;;1.10;0.80;;;15.80;99.90;;;;;;5092419;28;20094;-57
2022/07/07 03:34:24;;;;;;;2.22;0.98;;;15.80;99.90;;;;;;5093215;28;20383;-56
2022/07/07 03:36:49;;;;;;;1.27;0.80;;;15.70;99.90;;;;;;5093041;28;20038;-57
2022/07/07 03:39:15;;;;;;;1.17;0.80;;;15.70;99.90;;;;;;5092951;28;20020;-58
2022/07/07 03:41:40;;;;;;;3.53;0.90;;;15.70;99.90;;;;;;5092657;28;20054;-52
2022/07/07 03:44:06;;;;;;;1.60;0.82;;;15.70;99.90;;;;;;5092817;28;20040;-58
2022/07/07 03:46:32;;;;;;;1.80;0.90;;;15.70;99.90;;;;;;5092648;28;20028;-61
2022/07/07 03:48:58;;;;;;;0.90;0.80;;;15.70;99.90;;;;;;5092325;28;20466;-55
2022/07/07 03:51:23;;;;;;;2.20;0.88;;;15.70;99.90;;;;;;5092476;28;20013;-55
2022/07/07 03:53:49;;;;;;;1.17;0.90;;;15.80;99.90;;;;;;5092718;28;20028;-51
2022/07/07 03:56:15;;;;;;;3.17;0.90;;;15.80;99.90;;;;;;5092551;28;20035;-60
2022/07/07 03:58:40;;;;;;;2.08;0.90;;;15.80;99.90;;;;;;5088399;28;20017;-47
2022/07/07 04:01:07;;;;;;;2.47;1.00;;;15.90;99.90;;;;;;5082191;28;20039;-57
2022/07/07 04:03:33;;;;;;;1.40;0.90;;;15.80;99.90;;;;;;5092134;28;20048;-56
2022/07/07 04:05:58;;;;;;;1.23;0.70;;;15.80;99.90;;;;;;5092639;28;20027;-61
2022/07/07 04:08:24;;;;;;;2.65;0.98;;;15.80;99.90;;;;;;5092480;28;20123;-45
2022/07/07 04:10:50;;;;;;;1.80;0.90;;;15.90;99.90;;;;;;5092155;28;20482;-39
2022/07/07 04:13:16;;;;;;;2.22;0.90;;;15.80;99.90;;;;;;5092380;28;20016;-40
2022/07/07 04:15:41;;;;;;;1.60;1.00;;;15.80;99.90;;;;;;5092049;28;20032;-56
2022/07/07 04:18:07;;;;;;;4.88;1.90;;;15.90;99.90;;;;;;5092260;28;20020;-44
2022/07/07 04:20:33;;;;;;;2.38;1.00;;;15.90;99.90;;;;;;5092338;28;20070;-46
2022/07/07 04:22:58;;;;;;;4.85;1.38;;;15.90;99.90;;;;;;5091783;28;20547;-51
2022/07/07 04:25:24;;;;;;;3.50;1.30;;;15.90;99.90;;;;;;5092092;28;20054;-52
2022/07/07 04:27:50;;;;;;;2.20;0.95;;;15.90;99.90;;;;;;5092137;28;20099;-59
2022/07/07 04:30:16;;;;;;;1.58;0.98;;;15.90;99.90;;;;;;5092079;28;20020;-55
2022/07/07 04:32:42;;;;;;;1.77;1.10;;;16.00;99.90;;;;;;5091610;28;20119;-55
2022/07/07 04:35:08;;;;;;;2.13;0.90;;;16.00;99.90;;;;;;5091650;28;20027;-54
2022/07/07 04:37:34;;;;;;;2.88;1.20;;;16.00;99.90;;;;;;5091677;28;20020;-50
2022/07/07 04:40:00;;;;;;;2.92;1.20;;;16.10;99.90;;;;;;5091634;28;20028;-53
2022/07/07 04:42:26;;;;;;;1.60;1.00;;;16.10;99.90;;;;;;5091332;28;20039;-43
2022/07/07 04:44:52;;;;;;;2.88;1.05;;;16.10;99.90;;;;;;5091473;28;20028;-50
2022/07/07 04:47:17;;;;;;;1.85;0.95;;;16.20;99.90;;;;;;5091551;28;20121;-54
2022/07/07 04:49:43;;;;;;;1.00;0.85;;;16.20;99.90;;;;;;5091476;28;20028;-46
2022/07/07 04:52:09;;;;;;;2.60;1.20;;;16.20;99.90;;;;;;5091599;28;20028;-54
2022/07/07 04:54:35;;;;;;;1.23;0.90;;;16.30;99.90;;;;;;5091316;28;20024;-47
2022/07/07 04:57:00;;;;;;;1.63;0.90;;;16.30;99.90;;;;;;5091578;28;20020;-50
2022/07/07 04:59:26;;;;;;;2.35;0.90;;;16.30;99.90;;;;;;5080391;28;20033;-41
2022/07/07 05:01:52;;;;;;;1.77;0.80;;;16.30;99.90;;;;;;5086919;28;20102;-41
2022/07/07 05:04:17;;;;;;;1.08;0.85;;;16.30;99.90;;;;;;5091441;28;20468;-57
2022/07/07 05:06:43;;;;;;;2.42;1.10;;;16.40;99.90;;;;;;5091250;28;20081;-54
2022/07/07 05:09:09;;;;;;;3.17;1.33;;;16.40;99.90;;;;;;5091633;28;20020;-58
2022/07/07 05:11:35;;;;;;;1.73;1.05;;;16.30;99.90;;;;;;5091185;28;20023;-58
2022/07/07 05:14:02;;;;;;;2.75;1.20;;;16.40;99.90;;;;;;5091129;28;20032;-43
2022/07/07 05:16:29;;;;;;;3.40;1.70;;;16.40;99.90;;;;;;5091336;28;20024;-59
2022/07/07 05:18:55;;;;;;;2.88;1.30;;;16.40;99.90;;;;;;5091187;28;20024;-56
2022/07/07 05:21:20;;;;;;;3.90;2.08;;;16.40;99.90;;;;;;5091045;28;20081;-46
2022/07/07 05:23:46;;;;;;;3.20;1.55;;;16.40;99.90;;;;;;5091036;28;20043;-50
2022/07/07 05:26:12;;;;;;;2.15;1.10;;;16.40;99.90;;;;;;5091150;28;20020;-60
2022/07/07 05:28:41;;;;;;;2.58;1.20;;;16.40;99.90;;;;;;5091090;28;20372;-55
2022/07/07 05:31:08;;;;;;;1.92;1.02;;;16.40;99.90;;;;;;5090690;28;20487;-59
2022/07/07 05:33:34;;;;;;;2.08;1.13;;;16.50;99.90;;;;;;5091150;28;20103;-57
2022/07/07 05:35:59;;;;;;;3.10;1.10;;;16.50;99.90;;;;;;5090758;28;20107;-56
2022/07/07 05:38:25;;;;;;;2.90;1.35;;;16.50;99.90;;;;;;5091082;28;20399;-58
2022/07/07 05:40:50;;;;;;;4.15;1.30;;;16.50;99.90;;;;;;5090860;28;20028;-46
2022/07/07 05:43:16;;;;;;;2.15;1.20;;;16.50;99.90;;;;;;5106428;28;20798;-55
2022/07/07 05:45:42;;;;;;;1.52;1.08;;;16.50;99.90;;;;;;5091297;28;20021;-51
2022/07/07 05:48:07;;;;;;;1.88;1.00;;;16.50;99.90;;;;;;5090931;28;20020;-51
2022/07/07 05:50:33;;;;;;;2.75;1.20;;;16.50;99.90;;;;;;5090975;28;20371;-62
2022/07/07 05:52:59;;;;;;;3.88;1.10;;;16.60;99.90;;;;;;5090591;28;20036;-44
2022/07/07 05:55:24;;;;;;;2.97;1.30;;;16.70;99.90;;;;;;5090888;28;20371;-49
2022/07/07 05:57:50;;;;;;;3.67;1.58;;;16.80;99.90;;;;;;5090648;28;20479;-54
2022/07/07 06:00:17;;;;;;;3.70;1.40;;;16.90;99.90;;;;;;5076737;28;20006;-57
2022/07/07 06:02:43;;;;;;;2.05;1.17;;;17.00;98.70;;;;;;5106012;28;20136;-52
2022/07/07 06:05:09;;;;;;;2.33;0.90;;;17.20;98.20;;;;;;5090403;28;20110;-53
2022/07/07 06:07:34;;;;;;;1.67;1.00;;;17.30;98.10;;;;;;5090786;28;20020;-44
2022/07/07 06:10:00;;;;;;;1.33;1.00;;;17.40;97.20;;;;;;5090803;28;20025;-56
2022/07/07 06:12:26;;;;;;;2.58;0.98;;;17.40;97.10;;;;;;5093373;28;20535;-46
2022/07/07 06:14:51;;;;;;;2.53;1.10;;;17.50;96.90;;;;;;5094590;28;20024;-50
2022/07/07 06:17:17;;;;;;;2.25;1.00;;;17.50;96.50;;;;;;5094038;28;20474;-53
2022/07/07 06:19:43;;;;;;;1.48;0.93;;;17.60;96.40;;;;;;5093956;28;20035;-51
2022/07/07 06:22:09;;;;;;;1.83;1.15;;;17.60;96.50;;;;;;5093798;28;20106;-53
2022/07/07 06:24:34;;;;;;;1.73;1.27;;;17.60;96.50;;;;;;5093746;28;20148;-51
2022/07/07 06:27:00;;;;;;;2.55;1.10;;;17.70;96.20;;;;;;5093276;28;20024;-54
2022/07/07 06:29:25;;;;;;;2.00;1.00;;;17.70;96.00;;;;;;5093805;28;20031;-48
2022/07/07 06:31:51;;;;;;;3.03;1.35;;;17.70;95.80;;;;;;5093114;28;20020;-50
2022/07/07 06:34:17;;;;;;;2.85;1.20;;;17.80;95.90;;;;;;5093944;28;20024;-55
2022/07/07 06:36:42;;;;;;;2.55;1.10;;;17.80;96.30;;;;;;5093013;28;20108;-55
2022/07/07 06:39:08;;;;;;;2.72;1.10;;;17.80;96.00;;;;;;5093383;28;20073;-55
2022/07/07 06:41:36;;;;;;;2.20;1.20;;;17.80;95.70;;;;;;5090172;28;20024;-49
2022/07/07 06:44:03;;;;;;;1.65;1.10;;;17.80;95.50;;;;;;5082133;28;20094;-53
2022/07/07 06:46:28;;;;;;;1.60;1.13;;;17.90;95.10;;;;;;5088145;28;20024;-44
2022/07/07 06:48:54;;;;;;;1.80;1.08;;;17.90;95.10;;;;;;5089124;28;20020;-42
2022/07/07 06:51:19;;;;;;;1.55;1.10;;;17.90;95.00;;;;;;5093325;28;20070;-44
2022/07/07 06:53:45;;;;;;;3.08;1.20;;;17.90;94.80;;;;;;5093446;28;20086;-53
2022/07/07 06:56:11;;;;;;;1.80;1.00;;;17.90;94.60;;;;;;5093185;28;20031;-51
2022/07/07 06:58:37;;;;;;;1.85;1.10;;;17.90;94.60;;;;;;5092610;28;20445;-50
2022/07/07 07:01:03;;;;;;;2.90;1.10;;;17.90;94.70;;;;;;5093597;28;20035;-50
2022/07/07 07:03:28;;;;;;;1.88;1.10;;;18.00;95.10;;;;;;5093235;28;20135;-49
2022/07/07 07:05:54;;;;;;;3.50;1.38;;;17.90;95.30;;;;;;5093115;28;20410;-49
2022/07/07 07:08:20;;;;;;;3.38;1.20;;;18.00;95.50;;;;;;5092971;28;20024;-44
2022/07/07 07:10:45;;;;;;;2.10;1.20;;;18.00;95.70;;;;;;5093017;28;20661;-51
2022/07/07 07:13:11;;;;;;;3.15;1.20;;;18.00;95.50;;;;;;5092357;28;20120;-53
2022/07/07 07:15:39;;;;;;;2.08;1.08;;;17.90;95.10;;;;;;5092494;28;20081;-60
2022/07/07 07:18:06;;;;;;;2.40;1.30;;;17.90;95.20;;;;;;5090484;28;20464;-54
2022/07/07 07:20:33;;;;;;;3.08;1.52;;;17.90;95.50;;;;;;5076561;28;20526;-57
2022/07/07 07:22:58;;;;;;;3.30;1.58;;;17.90;95.30;;;;;;5082144;28;20131;-53
2022/07/07 07:25:24;;;;;;;3.50;1.63;;;17.80;95.40;;;;;;5082924;28;20099;-60
2022/07/07 07:27:50;;;;;;;3.10;1.25;;;17.80;95.70;;;;;;5087143;28;20453;-50
2022/07/07 07:30:16;;;;;;;4.60;1.45;;;17.80;95.40;;;;;;5092822;28;20729;-59
2022/07/07 07:32:43;;;;;;;2.63;1.40;;;17.80;95.90;;;;;;5088916;28;20395;-56
2022/07/07 07:35:09;;;;;;;3.38;1.60;;;17.80;96.00;;;;;;5091504;28;20458;-55
2022/07/07 07:37:35;;;;;;;3.28;1.50;;;17.80;95.50;;;;;;5091398;28;20099;-56
2022/07/07 07:40:01;;;;;;;3.78;1.40;;;17.80;95.40;;;;;;5091373;28;20213;-49
2022/07/07 07:42:26;;;;;;;2.60;1.33;;;17.90;95.50;;;;;;5090622;28;20164;-57
2022/07/07 07:45:11;;;;;;;2.22;1.23;;;18.00;94.80;;;;;;5091714;28;20024;-52
2022/07/07 07:47:42;;;;;;;2.22;1.02;;;18.00;94.90;;;;;;5090044;28;20490;-46
2022/07/07 07:50:12;;;;;;;2.08;1.10;;;18.10;94.60;;;;;;5090027;28;20070;-42
2022/07/07 07:52:38;;;;;;;;;;;18.20;94.90;;;;;;5091340;28;20028;-50
2022/07/07 07:55:05;;;;;;;2.60;1.33;;;18.40;93.60;;;;;;5090738;28;19904;-43
2022/07/07 07:57:30;;;;;;;1.88;1.27;;;18.50;93.70;;;;;;5090496;28;20445;-43
2022/07/07 07:59:56;;;;;;;2.65;1.30;;;18.50;93.60;;;;;;5088886;28;20028;-53
2022/07/07 08:02:21;;;;;;;2.25;1.38;;;18.60;94.00;;;;;;5091038;28;20134;-41
2022/07/07 08:04:47;;;;;;;2.15;1.10;;;18.70;94.20;;;;;;5091270;28;20066;-46
2022/07/07 08:07:13;;;;;;;2.78;1.20;;;18.80;93.30;;;;;;5091277;28;20012;-41
2022/07/07 08:09:39;;;;;;;2.03;1.10;;;18.90;92.60;;;;;;5091422;28;20418;-43
2022/07/07 08:12:05;;;;;;;3.92;1.73;;;18.90;92.40;;;;;;5091068;28;20031;-39
2022/07/07 08:14:31;;;;;;;3.60;1.13;;;18.90;92.50;;;;;;5088502;28;20055;-41
2022/07/07 08:16:57;;;;;;;2.25;1.20;;;19.00;93.20;;;;;;5084043;28;20021;-59
2022/07/07 08:19:22;;;;;;;2.00;1.10;;;19.00;92.70;;;;;;5074953;28;20099;-55
2022/07/07 08:21:48;;;;;;;2.25;1.30;;;19.00;93.10;;;;;;5083663;28;20024;-57
2022/07/07 08:24:14;;;;;;;3.40;1.20;;;19.00;92.90;;;;;;5075271;28;20099;-59
2022/07/07 08:26:41;;;;;;;1.50;1.00;;;19.00;92.30;;;;;;5084853;28;20027;-53
2022/07/07 08:29:07;;;;;;;3.42;1.00;;;19.00;91.90;;;;;;5090336;28;20028;-50
2022/07/07 08:31:33;;;;;;;2.38;1.15;;;19.00;91.40;;;;;;5090901;28;20030;-42
2022/07/07 08:33:59;;;;;;;2.28;1.10;;;19.00;92.10;;;;;;5090347;28;20031;-52
2022/07/07 08:36:24;;;;;;;2.25;1.20;;;19.00;92.20;;;;;;5090160;28;20094;-56
2022/07/07 08:38:50;;;;;;;2.28;1.02;;;19.00;92.20;;;;;;5090184;28;20081;-52
2022/07/07 08:41:16;;;;;;;2.28;1.10;;;19.00;91.70;;;;;;5090110;28;20023;-56
2022/07/07 08:43:43;;;;;;;2.63;1.10;;;19.10;92.40;;;;;;5076380;28;20031;-51
2022/07/07 08:46:11;;;;;;;2.20;1.00;;;19.10;91.30;;;;;;5089963;28;20035;-38
2022/07/07 08:48:37;;;;;;;2.85;1.13;;;19.10;91.70;;;;;;5090438;28;20501;-40
2022/07/07 08:51:03;;;;;;;3.22;1.15;;;19.10;92.50;;;;;;5090581;28;20032;-49
2022/07/07 08:53:34;;;;;;;4.10;1.40;;;19.20;91.70;;;;;;5090642;28;20127;-52
2022/07/07 08:56:04;;;;;;;3.67;1.48;;;19.20;91.90;;;;;;5090891;28;20020;-56
2022/07/07 08:58:31;;;;;;;4.22;1.27;;;19.20;91.40;;;;;;5087743;28;20510;-43
2022/07/07 09:00:57;;;;;;;4.65;1.70;;;19.30;91.00;;;;;;5078985;28;20028;-56
2022/07/07 09:03:23;;;;;;;3.30;1.05;;;19.30;91.60;;;;;;5080883;28;20053;-59
2022/07/07 09:05:50;;;;;;;1.98;1.10;;;19.40;91.60;;;;;;5089736;28;20410;-50
2022/07/07 09:08:20;;;;;;;5.63;1.48;;;19.50;90.50;;;;;;5089595;28;20020;-47
2022/07/07 09:10:46;;;;;;;4.03;1.48;;;19.60;90.30;;;;;;5089197;28;20016;-53
2022/07/07 09:13:32;;;;;;;2.63;1.10;;;19.60;91.30;;;;;;5089480;28;20028;-44
2022/07/07 09:16:13;;;;;;;5.10;1.30;;;19.60;91.40;;;;;;5090341;28;20028;-38
2022/07/07 09:18:41;;;;;;;4.57;1.70;;;19.60;90.30;;;;;;5089968;28;20020;-51
2022/07/07 09:21:25;;;;;;;2.20;1.17;;;19.60;91.30;;;;;;5089930;28;20106;-47
2022/07/07 09:23:53;;;;;;;2.90;1.33;;;19.70;91.30;;;;;;5089014;28;20495;-51
2022/07/07 09:26:34;;;;;;;3.03;1.42;;;19.70;90.60;;;;;;5088025;28;20027;-49
2022/07/07 09:29:00;;;;;;;3.08;1.23;;;19.80;90.70;;;;;;5088284;28;20030;-53
2022/07/07 09:31:46;;;;;;;3.20;1.35;;;19.80;90.40;;;;;;5088354;28;20107;-49
2022/07/07 09:34:12;;;;;;;2.72;1.10;;;19.90;90.40;;;;;;5088249;28;20553;-48
2022/07/07 09:39:22;;;;;;;1.92;1.20;;;19.90;88.80;;;;;;5088102;28;20031;-51
2022/07/07 09:41:48;;;;;;;3.08;1.02;;;19.80;90.20;;;;;;5090007;28;20476;-49
2022/07/07 09:44:13;;;;;;;4.18;1.40;;;19.90;90.90;;;;;;5088525;28;20468;-45
2022/07/07 09:46:39;;;;;;;2.70;1.17;;;20.00;90.70;;;;;;5091948;28;20510;-50
2022/07/07 09:49:10;;;;;;;4.22;1.48;;;20.00;90.40;;;;;;5094334;28;20105;-55
2022/07/07 09:51:35;;;;;;;3.17;1.45;;;20.00;90.80;;;;;;5094432;28;20023;-42
2022/07/07 09:54:07;;;;;;;2.53;1.40;;;20.10;90.20;;;;;;5094313;28;20024;-49
2022/07/07 09:56:41;;;;;;;2.13;1.10;;;20.30;90.60;;;;;;5093943;28;20020;-44
2022/07/07 09:59:14;;;;;;;1.80;1.13;;;20.40;89.30;;;;;;5086224;28;20043;-48
2022/07/07 10:01:42;;;;;;;2.88;1.08;;;20.40;90.30;;;;;;5088077;28;20024;-51
2022/07/07 10:04:14;;;;;;;1.55;1.15;;;20.30;89.80;;;;;;5093808;28;20576;-49
2022/07/07 10:06:42;;;;;;;3.33;1.40;;;20.20;88.10;;;;;;5093921;28;20111;-44
2022/07/07 10:09:16;;;;;;;5.07;1.50;;;20.10;90.40;;;;;;5079957;28;20031;-54
2022/07/07 10:11:44;;;;;;;3.13;1.85;;;20.10;90.20;;;;;;5093808;28;20020;-50
2022/07/07 10:14:13;;;;;;;2.75;1.40;;;20.00;90.50;;;;;;5093707;28;20473;-49
2022/07/07 10:16:41;;;;;;;2.75;1.40;;;19.90;90.10;;;;;;5093969;28;20042;-50
2022/07/07 10:19:14;;;;;;;3.53;1.40;;;19.90;89.70;;;;;;5092541;28;20020;-50
2022/07/07 10:21:42;;;;;;;3.50;1.52;;;20.00;90.00;;;;;;5093835;28;20024;-48
2022/07/07 10:24:09;;;;;;;3.47;1.35;;;20.10;91.20;;;;;;5093144;28;20184;-47
2022/07/07 10:26:37;;;;;;;2.50;1.10;;;20.20;89.20;;;;;;5093517;28;20028;-51
2022/07/07 10:29:04;;;;;;;3.20;1.20;;;20.40;89.20;;;;;;5093451;28;20051;-48
2022/07/07 10:31:30;;;;;;;1.90;1.08;;;20.50;88.70;;;;;;5093056;28;20091;-51
2022/07/07 10:34:04;;;;;;;3.95;1.33;;;20.60;90.00;;;;;;5091780;28;20032;-39
2022/07/07 10:36:45;;;;;;;2.60;1.40;;;20.70;88.90;;;;;;5092642;28;20127;-45
2022/07/07 10:39:12;;;;;;;2.92;1.40;;;20.60;89.60;;;;;;5093170;28;20031;-42
2022/07/07 10:41:40;;;;;;;3.83;1.30;;;20.60;87.80;;;;;;5093236;28;20032;-57
2022/07/07 10:44:09;;;;;;;3.53;1.40;;;20.50;89.30;;;;;;5093486;28;20044;-55
2022/07/07 10:46:35;;;;;;;3.20;1.10;;;20.50;88.60;;;;;;5093095;28;20043;-48
2022/07/07 10:49:12;;;;;;;3.55;1.40;;;20.50;88.20;;;;;;5093395;28;20028;-48
2022/07/07 10:52:17;;;;;;;4.05;1.30;;;20.40;87.10;;;;;;5087855;28;20025;-55
2022/07/07 10:55:02;;;;;;;2.42;0.93;;;20.40;87.80;;;;;;5088143;28;20036;-44
2022/07/07 10:57:40;;;;;;;3.10;1.02;;;20.50;87.70;;;;;;5091991;28;20020;-47
2022/07/07 11:00:09;;;;;;;2.55;0.95;;;20.50;87.40;;;;;;5078324;28;20024;-43
2022/07/07 11:02:39;;;;;;;2.60;1.00;;;20.60;85.30;;;;;;5091587;28;20051;-51
2022/07/07 11:05:29;;;;;;;3.40;0.85;;;20.70;84.70;;;;;;5092812;28;20036;-56
2022/07/07 11:08:03;;;;;;;3.40;1.05;;;20.90;85.60;;;;;;5092248;28;20551;-49
2022/07/07 11:10:50;;;;;;;2.75;1.10;;;21.00;82.90;;;;;;5092310;28;20032;-65
2022/07/07 11:13:21;;;;;;;3.67;1.42;;;21.10;84.60;;;;;;5092588;28;20024;-56
2022/07/07 11:15:52;;;;;;;3.28;1.10;;;21.10;83.30;;;;;;5092621;28;20032;-59
2022/07/07 11:18:20;;;;;;;2.22;1.10;;;21.00;83.80;;;;;;5092455;28;20123;-57
2022/07/07 11:20:55;;;;;;;2.95;1.10;;;21.00;82.90;;;;;;5092346;28;20047;-59
2022/07/07 11:23:21;;;;;;;3.10;1.15;;;21.00;81.90;;;;;;5092450;28;20487;-50
2022/07/07 11:25:47;;;;;;;1.92;1.15;;;21.00;82.50;;;;;;5092206;28;20028;-48
2022/07/07 11:28:13;;;;;;;2.60;1.10;;;21.10;85.40;;;;;;5091578;28;20024;-47
2022/07/07 11:30:40;;;;;;;2.47;1.50;;;21.20;83.20;;;;;;5091619;28;20032;-57
2022/07/07 11:33:08;;;;;;;3.47;1.30;;;21.40;82.60;;;;;;5091354;28;20043;-50
2022/07/07 11:35:37;;;;;;;1.98;1.08;;;21.50;81.80;;;;;;5091873;28;20016;-48
2022/07/07 11:38:09;;;;;;;;;;;21.70;82.70;;;;;;5091749;28;20391;-40
2022/07/07 11:40:38;;;;;;;2.83;1.13;;;21.80;81.40;;;;;;5091667;28;19908;-44
2022/07/07 11:43:05;;;;;;;;;;;21.80;80.00;;;;;;5090589;28;20032;-44
2022/07/07 11:45:31;;;;;;;1.83;1.10;;;21.80;78.80;;;;;;5091062;28;19911;-45
2022/07/07 11:48:02;;;;;;;3.42;1.23;;;21.60;78.90;;;;;;5091228;28;20028;-51
2022/07/07 11:50:32;;;;;;;1.80;1.20;;;21.70;81.20;;;;;;5088976;28;20090;-58
2022/07/07 11:53:00;;;;;;;3.88;1.20;;;21.80;80.60;;;;;;5091279;28;20024;-47
2022/07/07 11:55:27;;;;;;;7.20;1.88;;;21.80;79.10;;;;;;5091533;28;20099;-51
2022/07/07 11:57:53;;;;;;;4.30;1.50;;;21.80;79.10;;;;;;5091363;28;20020;-47
2022/07/07 12:00:20;;;;;;;2.90;1.45;;;21.90;80.20;;;;;;5089585;28;20063;-47
2022/07/07 12:02:48;;;;;;;3.50;1.65;;;21.80;80.80;;;;;;5088516;28;20491;-42
2022/07/07 12:05:19;;;;;;;6.25;1.63;;;21.80;80.00;;;;;;5091242;28;20494;-51
2022/07/07 12:07:53;;;;;;;3.03;1.10;;;21.70;82.10;;;;;;5088484;28;20016;-47
2022/07/07 12:10:25;;;;;;;3.30;1.17;;;21.60;81.00;;;;;;5104397;28;20394;-53
2022/07/07 12:13:24;;;;;;;1.98;1.27;;;21.60;82.90;;;;;;5089283;28;20047;-55
2022/07/07 12:15:51;;;;;;;4.45;1.30;;;21.50;80.90;;;;;;5089708;28;20028;-57
2022/07/07 12:18:30;;;;;;;2.28;1.20;;;21.40;80.30;;;;;;5091444;28;20027;-54
2022/07/07 12:21:01;;;;;;;2.85;1.10;;;21.30;79.20;;;;;;5089827;28;20097;-42
2022/07/07 12:23:27;;;;;;;1.35;0.95;;;21.30;80.70;;;;;;5090823;28;20472;-54
2022/07/07 12:26:06;;;;;;;3.13;1.55;;;21.40;81.80;;;;;;5091541;28;20050;-46
2022/07/07 12:28:36;;;;;;;3.60;1.25;;;21.40;80.40;;;;;;5076811;28;20104;-46
2022/07/07 12:31:03;;;;;;;2.05;1.20;;;21.30;80.50;;;;;;5073708;28;20047;-50
2022/07/07 12:33:37;;;;;;;3.13;1.20;;;21.40;80.10;;;;;;5071888;28;20422;-61
2022/07/07 12:36:15;;;;;;;3.38;1.40;;;21.50;82.40;;;;;;5075222;28;20608;-41
2022/07/07 12:38:58;;;;;;;1.83;1.02;;;21.60;80.20;;;;;;5083234;28;20046;-52
2022/07/07 12:41:29;;;;;;;3.70;1.20;;;21.80;81.40;;;;;;5075630;28;20021;-40
2022/07/07 12:44:10;;;;;;;3.58;0.93;;;22.10;81.50;;;;;;5071543;28;20051;-44
2022/07/07 12:46:36;;;;;;;2.22;1.15;;;22.00;78.90;;;;;;5073436;28;20025;-39
2022/07/07 12:49:03;;;;;;;2.65;1.40;;;22.10;79.20;;;;;;5075688;28;20032;-53
2022/07/07 12:51:30;;;;;;;2.28;1.30;;;22.10;79.80;;;;;;5080326;28;20384;-37
2022/07/07 12:53:57;;;;;;;2.08;1.25;;;22.20;81.00;;;;;;5076364;28;20036;-56